Date,TemperatureHighF,TemperatureAvgF,TemperatureLowF,DewpointHighF,DewpointAvgF,DewpointLowF,HumidityHigh,HumidityAvg,HumidityLow,PressureMaxIn,PressureMinIn,WindSpeedMaxMPH,WindSpeedAvgMPH,GustSpeedMaxMPH,PrecipitationSumIn
2013-1-1,34.4,25.7,8.7,27.0,14.9,4.0,81,64,50,30.00,29.77,8,2,0,0.00
2013-1-2,27.1,14.6,2.4,18.0,7.4,-5.0,84,74,46,30.28,29.98,7,2,0,0.00
2013-1-3,13.5,5.4,-6.1,8.0,-2.0,-11.0,81,72,58,30.29,30.02,2,0,0,0.00
2013-1-4,36.0,26.8,13.7,24.0,18.1,9.0,88,71,57,30.01,29.86,8,2,0,0.05
2013-1-5,36.7,31.8,23.6,26.0,20.4,14.0,83,64,40,30.26,29.93,8,2,0,0.06
2013-1-6,37.2,30.6,23.9,31.0,25.4,19.0,89,81,67,30.20,29.93,5,1,0,0.08
2013-1-7,35.6,25.5,14.9,31.0,20.2,12.0,89,80,66,30.41,30.00,7,1,0,0.02
2013-1-8,38.2,22.9,9.0,26.0,17.2,6.0,89,80,59,30.40,30.30,2,0,0,0.06
2013-1-9,42.7,29.0,15.8,31.0,23.1,13.0,90,80,55,30.40,30.00,11,1,0,0.11
2013-1-10,43.2,35.8,27.2,32.0,24.3,22.0,82,64,43,30.59,30.17,6,2,0,0.10
2013-1-11,37.5,30.1,24.2,36.0,26.9,21.0,95,87,76,30.56,30.13,2,0,0,0.23
2013-1-12,42.4,37.9,33.7,41.0,36.8,32.0,96,95,93,30.17,30.10,4,0,0,0.01
2013-1-13,45.4,40.7,35.3,45.0,39.7,34.0,97,96,95,30.15,29.94,7,1,0,0.01
2013-1-14,45.2,41.0,32.4,44.0,34.0,23.0,96,78,52,30.33,29.88,9,2,0,0.10
2013-1-15,35.9,32.2,29.0,26.0,22.7,20.0,79,68,53,30.37,30.25,6,1,0,0.00
2013-1-16,30.9,29.5,28.0,29.0,26.5,22.0,97,89,75,30.24,29.85,3,0,0,0.00
2013-1-17,35.6,29.0,18.1,31.0,20.6,5.0,95,73,46,30.19,29.86,7,1,0,0.12
2013-1-18,21.6,16.2,8.2,9.0,3.7,-3.0,71,58,39,30.42,30.14,8,1,0,0.00
2013-1-19,40.5,33.2,21.7,25.0,18.9,9.0,62,56,50,30.28,29.79,7,2,0,0.07
2013-1-20,42.0,34.5,21.3,33.0,20.5,8.0,80,58,36,30.03,29.51,13,3,0,0.01
2013-1-21,24.2,21.1,18.5,19.0,11.3,5.0,88,67,52,30.09,29.82,7,0,0,0.00
2013-1-22,19.6,14.4,8.5,16.0,4.7,-2.0,88,67,43,30.14,29.81,14,2,0,0.00
2013-1-23,10.9,4.7,-1.7,4.0,-7.2,-10.0,82,59,42,30.24,30.14,8,2,0,0.00
2013-1-24,15.4,4.4,-7.4,-3.0,-7.4,-12.0,80,60,37,30.42,30.20,10,2,0,0.00
2013-1-25,15.6,9.4,0.8,8.0,-3.2,-9.0,84,58,43,30.44,30.12,3,0,0,0.00
2013-1-26,20.9,12.8,5.2,7.0,4.0,-1.0,86,69,48,30.36,30.11,3,0,0,0.01
2013-1-27,25.1,14.9,4.2,5.0,2.7,1.0,93,61,38,30.54,30.36,4,1,0,0.00
2013-1-28,23.4,18.5,11.8,22.0,13.1,4.0,92,80,64,30.51,29.99,2,0,0,0.00
2013-1-29,37.5,29.1,23.5,36.0,27.2,22.0,95,92,90,30.18,30.01,3,0,0,0.26
2013-1-30,55.1,48.3,37.8,54.0,46.8,36.0,96,94,90,30.02,29.32,8,2,0,0.30
2013-1-31,54.0,38.6,25.5,53.0,28.9,13.0,96,70,47,29.63,28.91,12,5,0,0.47
2013-2-1,26.8,22.8,17.3,17.0,9.8,4.0,85,58,46,30.18,29.63,9,3,0,0.00
2013-2-2,25.1,18.2,10.4,17.0,9.3,4.0,82,68,54,30.24,30.05,5,1,0,0.00
2013-2-3,27.6,20.2,12.3,15.0,12.0,9.0,88,71,50,30.07,29.80,3,0,0,0.00
2013-2-4,25.5,20.5,13.1,17.0,10.3,3.0,83,66,41,29.98,29.79,10,2,0,0.00
2013-2-5,27.1,19.4,10.1,17.0,10.1,6.0,87,69,46,30.05,29.91,4,0,0,0.00
2013-2-6,33.6,25.0,17.1,24.0,12.7,-3.0,89,63,26,30.39,29.91,9,2,0,0.00
2013-2-7,21.8,16.6,10.8,7.0,3.5,0.0,78,58,42,30.59,30.39,6,1,0,0.00
2013-2-8,27.4,21.4,15.9,24.0,16.5,4.0,91,82,60,30.41,29.86,4,0,0,0.00
2013-2-9,24.2,17.0,4.9,21.0,9.0,-1.0,91,72,48,30.40,29.88,4,1,0,0.11
2013-2-10,26.6,11.1,-4.0,6.0,0.6,-8.0,83,65,35,30.55,30.31,2,0,0,0.00
2013-2-11,40.1,30.1,12.8,36.0,25.7,5.0,93,83,67,30.29,29.66,8,2,0,0.05
2013-2-12,37.0,35.1,31.8,30.0,27.6,25.0,81,74,68,29.94,29.70,11,3,0,0.00
2013-2-13,38.9,32.2,28.6,26.0,23.2,19.0,81,70,47,29.91,29.75,4,1,0,0.00
2013-2-14,38.4,30.4,20.8,24.0,21.4,17.0,87,70,53,29.96,29.75,4,1,0,0.00
2013-2-15,45.5,37.8,29.6,28.0,25.1,21.0,83,62,42,30.02,29.89,10,2,0,0.00
2013-2-16,34.1,29.3,22.7,27.0,15.7,8.0,86,58,40,30.02,29.88,5,1,0,0.00
2013-2-17,26.3,19.4,12.1,10.0,2.3,-3.0,66,49,30,29.96,29.68,12,3,0,0.00
2013-2-18,27.0,16.6,6.7,7.0,-0.2,-5.0,62,49,31,30.22,29.96,10,3,0,0.00
2013-2-19,41.5,28.2,17.1,33.0,19.7,7.0,93,72,48,30.19,29.64,8,1,0,0.20
2013-2-20,31.7,26.9,23.4,27.0,16.2,10.0,81,65,45,29.90,29.67,16,4,0,0.00
2013-2-21,25.0,21.0,18.2,16.0,9.8,5.0,78,62,50,30.41,29.89,11,4,0,0.00
2013-2-22,36.1,27.9,18.0,24.0,18.8,14.0,84,69,56,30.45,30.26,4,1,0,0.00
2013-2-23,35.8,33.3,32.0,32.0,28.4,24.0,94,82,67,30.25,29.90,6,1,0,0.03
2013-2-24,36.1,32.9,31.3,35.0,30.1,25.0,95,89,73,29.98,29.79,6,1,0,0.11
2013-2-25,40.0,33.6,26.7,28.0,25.6,24.0,89,74,54,30.26,29.99,4,1,0,0.05
2013-2-26,41.6,33.4,24.3,33.0,26.7,22.0,94,78,57,30.33,30.06,5,1,0,0.00
2013-2-27,41.1,35.2,31.3,37.0,32.0,24.0,95,88,62,30.06,29.59,9,1,0,0.52
2013-2-28,41.8,36.1,32.4,37.0,33.2,31.0,95,89,76,29.63,29.57,4,0,0,0.09
2013-3-1,37.6,33.7,31.1,34.0,30.9,29.0,94,90,80,29.79,29.62,3,0,0,0.02
2013-3-2,37.7,30.5,25.7,28.0,24.8,23.0,91,80,61,29.80,29.73,6,2,0,0.02
2013-3-3,31.3,25.9,21.2,23.0,19.7,16.0,87,77,67,29.78,29.71,7,2,0,0.06
2013-3-4,33.0,28.4,24.6,22.0,19.3,17.0,76,69,58,29.93,29.77,8,3,0,0.01
2013-3-5,40.6,31.8,27.5,27.0,23.1,20.0,84,71,57,30.11,29.93,4,1,0,0.01
2013-3-6,40.0,34.1,28.1,31.0,26.5,23.0,88,74,60,30.16,30.07,8,1,0,0.00
2013-3-7,37.4,33.2,29.3,29.0,25.4,21.0,92,74,55,30.18,30.12,6,1,0,0.00
2013-3-8,41.0,32.2,27.7,30.0,27.1,24.0,93,82,62,30.32,30.13,4,0,0,0.22
2013-3-9,51.8,35.1,22.1,26.0,22.7,19.0,91,65,34,30.38,30.30,5,0,0,0.00
2013-3-10,55.1,39.9,23.9,30.0,23.7,20.0,88,57,30,30.37,30.20,9,2,0,0.00
2013-3-11,49.4,43.4,36.3,40.0,33.7,30.0,79,69,56,30.23,30.00,12,3,0,0.00
2013-3-12,52.8,47.3,36.8,50.0,43.5,33.0,94,86,78,30.02,29.69,11,3,0,0.67
2013-3-13,45.1,37.1,31.8,32.0,25.8,19.0,89,66,36,29.88,29.79,8,3,0,0.00
2013-3-14,32.0,26.3,23.2,21.0,12.9,6.0,75,58,42,29.93,29.83,16,4,0,0.00
2013-3-15,35.3,28.2,18.5,30.0,17.6,7.0,88,65,48,29.97,29.66,7,2,0,0.00
2013-3-16,36.3,28.2,19.8,26.0,14.9,8.0,87,59,32,29.93,29.79,4,1,0,0.01
2013-3-17,35.2,27.4,18.0,15.0,6.1,-1.0,72,44,23,30.36,29.94,6,2,0,0.00
2013-3-18,34.9,25.7,14.6,26.0,9.3,3.0,90,53,28,30.47,30.11,4,1,0,0.00
2013-3-19,33.1,29.8,26.3,31.0,27.9,23.0,94,92,88,30.10,29.73,3,0,0,0.09
2013-3-20,34.9,26.4,19.7,25.0,19.0,-99.9,90,77,58,29.83,29.77,8,-10,0,0.18
2013-3-21,36.3,27.0,16.4,20.0,15.3,12.0,87,64,41,29.83,29.66,7,2,0,0.12
2013-3-22,34.5,27.8,20.4,23.0,18.5,12.0,79,69,57,29.83,29.70,10,3,0,0.00
2013-3-23,39.9,33.1,25.9,24.0,20.5,17.0,86,62,41,29.90,29.78,12,3,0,0.00
2013-3-24,42.9,35.2,30.4,26.0,22.4,20.0,72,60,43,29.92,29.78,6,2,0,0.00
2013-3-25,41.9,35.3,29.0,28.0,25.3,23.0,78,68,53,29.80,29.55,5,1,0,0.00
2013-3-26,46.2,38.1,31.2,29.0,24.4,19.0,82,60,34,29.86,29.63,6,1,0,0.00
2013-3-27,48.2,38.0,28.4,33.0,26.7,19.0,79,65,48,29.96,29.84,8,2,0,0.00
2013-3-28,48.0,40.4,34.1,35.0,31.5,28.0,86,71,55,30.10,29.95,5,2,0,0.00
2013-3-29,48.6,41.3,35.7,32.0,30.1,28.0,77,65,47,30.13,30.06,10,2,0,0.00
2013-3-30,55.0,43.0,30.2,31.0,23.2,14.0,85,51,20,30.15,30.05,8,2,0,0.00
2013-3-31,55.6,41.8,27.1,39.0,25.9,18.0,91,58,27,30.12,29.73,7,2,0,0.19
2013-4-1,45.8,38.8,30.1,43.0,29.2,11.0,95,72,34,29.88,29.57,15,3,0,0.11
2013-4-2,34.7,29.8,24.8,23.0,17.4,12.0,82,61,41,30.02,29.88,14,4,0,0.00
2013-4-3,40.1,31.9,25.2,24.0,14.9,9.0,84,52,29,30.29,30.01,16,4,0,0.00
2013-4-4,52.5,39.2,26.3,22.0,19.2,17.0,73,48,26,30.36,29.97,7,2,0,0.00
2013-4-5,52.6,43.2,35.2,28.0,22.5,16.0,72,46,28,30.00,29.77,9,3,0,0.00
2013-4-6,47.4,36.3,26.1,26.0,8.1,0.0,69,33,14,30.30,30.00,7,2,0,0.00
2013-4-7,57.7,46.2,28.5,39.0,26.1,11.0,73,48,25,30.26,29.87,11,3,0,0.00
2013-4-8,59.2,50.0,40.6,38.0,33.8,30.0,77,56,35,30.14,29.94,5,1,0,0.00
2013-4-9,57.7,52.1,43.9,48.0,41.7,35.0,93,69,52,30.04,29.82,9,2,0,0.04
2013-4-10,54.7,48.5,44.0,49.0,45.6,42.0,95,90,77,30.02,29.87,5,0,0,0.93
2013-4-11,43.9,38.1,32.0,42.0,30.1,22.0,94,74,48,30.17,29.90,11,2,0,0.06
2013-4-12,36.0,33.9,31.2,35.0,31.4,24.0,95,91,68,30.15,29.80,3,0,0,0.32
2013-4-13,48.9,41.0,35.4,40.0,36.7,34.0,96,86,63,29.95,29.82,6,1,0,0.02
2013-4-14,45.7,39.7,30.8,37.0,30.7,24.0,94,72,44,30.26,29.95,8,2,0,0.05
2013-4-15,59.9,45.2,27.4,34.0,29.2,24.0,90,58,33,30.38,30.23,11,2,0,0.00
2013-4-16,58.2,52.6,46.4,53.0,42.3,29.0,91,69,48,30.30,30.00,10,3,0,0.13
2013-4-17,63.3,52.2,41.1,45.0,34.3,27.0,83,54,26,30.34,30.14,6,2,0,0.00
2013-4-18,64.5,51.0,37.1,46.0,34.7,30.0,79,57,32,30.35,30.03,10,2,0,0.00
2013-4-19,70.6,61.3,44.6,61.0,54.6,41.0,90,79,66,30.02,29.50,10,3,0,0.41
2013-4-20,51.2,43.5,34.9,42.0,31.7,18.0,93,67,38,30.33,29.73,11,3,0,0.11
2013-4-21,50.0,39.2,29.3,24.0,18.3,15.0,65,45,26,30.67,30.33,6,1,0,0.00
2013-4-22,58.2,45.0,30.9,27.0,21.4,16.0,72,43,19,30.72,30.50,8,2,0,0.00
2013-4-23,54.7,44.4,33.7,38.0,31.4,25.0,81,61,53,30.54,30.15,6,2,0,0.00
2013-4-24,71.0,54.2,32.8,49.0,40.8,31.0,93,64,40,30.15,29.68,15,2,0,0.00
2013-4-25,56.9,47.2,40.5,49.0,30.4,24.0,83,55,29,30.27,29.79,12,3,0,0.01
2013-4-26,57.6,45.4,34.2,38.0,30.8,26.0,84,60,33,30.46,30.27,7,1,0,0.01
2013-4-27,64.6,49.0,31.1,36.0,29.5,22.0,84,52,23,30.47,30.29,7,1,0,0.00
2013-4-28,72.7,57.0,37.0,39.0,35.5,32.0,88,50,23,30.32,30.10,9,1,0,0.00
2013-4-29,59.1,55.8,51.0,46.0,39.1,29.0,81,55,37,30.23,30.16,11,1,0,0.01
2013-4-30,72.2,59.5,47.8,45.0,41.3,31.0,88,56,28,30.30,30.22,10,1,0,0.00
2013-5-1,77.6,63.0,44.4,39.0,32.0,26.0,63,33,19,30.45,30.29,4,1,0,0.00
2013-5-2,80.9,65.6,46.1,45.0,39.3,33.0,80,42,20,30.46,30.25,9,1,0,0.00
2013-5-3,72.3,62.0,51.0,40.0,32.0,24.0,52,34,18,30.48,30.31,7,2,0,0.00
2013-5-4,75.5,62.3,45.0,46.0,39.6,27.0,86,48,27,30.36,30.16,4,1,0,0.00
2013-5-5,76.5,62.1,45.8,42.0,36.0,29.0,80,43,18,30.29,30.12,6,1,0,0.00
2013-5-6,76.1,60.5,43.5,47.0,35.2,9.0,86,47,8,30.25,30.07,5,1,0,0.00
2013-5-7,81.7,66.5,49.1,53.0,48.6,37.0,91,57,21,30.16,30.02,5,1,0,0.00
2013-5-8,71.2,63.0,54.9,61.0,56.5,52.0,95,80,58,30.14,29.99,4,0,0,0.19
2013-5-9,71.1,60.9,51.2,57.0,53.3,50.0,97,78,50,30.00,29.86,5,1,0,0.00
2013-5-10,76.4,65.8,51.5,57.0,53.3,50.0,95,67,43,29.98,29.81,4,1,0,0.00
2013-5-11,68.3,61.3,54.8,63.0,57.1,48.0,95,86,62,29.83,29.65,9,1,0,0.16
2013-5-12,57.7,52.4,42.8,49.0,37.3,25.0,85,60,31,29.87,29.67,7,1,0,0.00
2013-5-13,47.9,43.0,36.8,32.0,28.7,26.0,75,58,47,30.10,29.87,7,1,0,0.00
2013-5-14,55.0,45.1,33.7,34.0,30.6,26.0,83,60,33,30.13,30.02,4,0,0,0.00
2013-5-15,62.4,48.1,32.6,51.0,39.7,30.0,91,74,45,30.05,29.61,6,1,0,0.22
2013-5-16,76.8,62.9,46.2,49.0,39.6,29.0,86,48,19,29.88,29.68,7,2,0,0.00
2013-5-17,68.2,57.4,44.0,44.0,39.8,35.0,81,55,31,30.23,29.88,5,1,0,0.00
2013-5-18,73.2,58.9,41.4,48.0,42.4,38.0,92,60,29,30.32,30.20,4,1,0,0.00
2013-5-19,59.4,55.2,48.0,55.0,52.0,46.0,94,89,74,30.30,30.16,5,1,0,0.18
2013-5-20,78.5,65.4,55.9,65.0,59.1,54.0,94,81,58,30.16,29.92,5,0,0,0.00
2013-5-21,87.7,70.8,60.2,67.0,62.3,59.0,96,77,43,29.95,29.76,4,1,0,0.70
2013-5-22,78.0,67.6,61.7,69.0,65.1,60.0,96,92,72,29.87,29.77,4,1,0,0.61
2013-5-23,75.0,68.8,64.9,68.0,64.8,61.0,95,87,74,29.82,29.72,7,1,0,0.24
2013-5-24,64.9,51.0,42.9,64.0,49.7,42.0,96,95,93,30.03,29.66,4,0,0,0.00
2013-5-25,45.0,43.3,42.3,43.0,41.7,40.0,96,94,89,30.02,29.94,2,0,0,0.00
2013-5-26,56.5,48.7,42.1,43.0,40.5,38.0,94,75,52,30.14,29.90,7,1,0,0.00
2013-5-27,69.2,56.6,39.6,43.0,38.1,33.0,94,54,28,30.21,30.11,5,1,0,0.00
2013-5-28,71.7,57.6,40.6,54.0,43.7,37.0,91,63,33,30.23,30.12,7,1,0,0.00
2013-5-29,75.6,63.7,56.9,68.0,60.6,54.0,96,90,75,30.12,29.93,5,1,0,0.53
2013-5-30,85.2,72.8,61.1,69.0,64.7,60.0,97,78,51,30.11,30.03,2,0,0,0.00
2013-5-31,90.9,77.7,63.9,71.0,66.0,62.0,96,70,43,30.11,29.91,3,0,0,0.00
2013-6-1,88.8,78.8,67.0,70.0,66.0,62.0,86,66,46,29.97,29.81,7,1,0,0.00
2013-6-2,85.7,74.2,66.8,71.0,67.6,63.0,95,81,59,29.82,29.67,6,1,0,0.01
2013-6-3,67.7,62.4,53.6,66.0,51.5,37.0,95,69,48,29.95,29.81,8,1,0,0.01
2013-6-4,72.2,58.6,45.0,45.0,41.6,39.0,84,56,33,30.14,29.95,4,1,0,0.00
2013-6-5,72.6,61.1,48.1,51.0,45.3,42.0,81,59,35,30.23,30.09,4,0,0,0.00
2013-6-6,71.8,62.2,54.7,55.0,49.0,43.0,93,64,39,30.16,30.04,5,1,0,0.48
2013-6-7,56.0,54.9,53.6,55.0,53.4,52.0,95,95,93,30.04,29.82,3,0,0,0.16
2013-6-8,68.1,59.8,52.8,60.0,56.2,52.0,97,88,74,30.05,29.75,3,0,0,0.23
2013-6-9,75.5,65.3,54.9,58.0,55.8,53.0,93,73,51,30.18,30.05,2,0,0,0.00
2013-6-10,65.0,60.3,54.5,62.0,57.6,53.0,95,91,80,30.19,29.90,2,0,0,0.70
2013-6-11,62.8,59.9,57.7,62.0,58.4,55.0,97,94,86,29.89,29.59,2,0,0,1.48
2013-6-12,70.9,62.1,56.1,57.0,53.5,50.0,91,74,51,29.86,29.64,2,0,0,0.00
2013-6-13,57.6,55.4,51.6,56.0,53.8,50.0,95,94,91,29.84,29.69,4,0,0,1.21
2013-6-14,74.7,62.5,53.1,63.0,56.1,52.0,96,81,51,29.88,29.71,2,0,0,0.01
2013-6-15,74.9,64.6,51.4,55.0,49.6,45.0,94,62,39,30.00,29.88,5,0,0,0.00
2013-6-16,70.1,61.7,53.5,63.0,54.6,45.0,93,78,61,29.97,29.72,4,0,0,0.04
2013-6-17,81.9,68.3,58.1,64.0,59.2,55.0,96,75,49,29.92,29.79,2,0,0,0.00
2013-6-18,62.1,59.1,54.2,57.0,53.4,51.0,91,81,73,29.99,29.91,4,0,0,0.00
2013-6-19,70.6,59.9,48.8,52.0,46.9,43.0,94,66,38,30.18,29.98,5,0,0,0.00
2013-6-20,76.5,63.0,45.4,56.0,48.6,41.0,92,63,32,30.29,30.18,2,0,0,0.00
2013-6-21,82.6,69.4,56.4,57.0,53.1,44.0,92,61,26,30.27,30.20,2,0,0,0.00
2013-6-22,83.9,72.4,60.2,66.0,61.5,57.0,92,70,52,30.21,30.06,6,1,0,0.00
2013-6-23,90.0,77.4,68.3,73.0,66.1,61.0,80,69,55,30.12,29.95,6,1,0,0.00
2013-6-24,89.4,76.1,67.1,71.0,67.3,63.0,94,76,51,30.03,29.90,2,0,0,0.05
2013-6-25,86.4,72.3,64.5,75.0,67.9,63.0,96,87,59,29.98,29.76,6,0,0,0.33
2013-6-26,78.8,71.9,68.4,71.0,68.6,67.0,97,89,72,29.82,29.76,3,0,0,0.03
2013-6-27,85.1,75.0,66.0,71.0,67.8,65.0,96,80,55,29.82,29.63,4,0,0,0.06
2013-6-28,75.1,70.8,65.6,68.0,65.9,64.0,95,85,71,29.62,29.37,6,1,0,0.78
2013-6-29,79.1,70.8,63.9,70.0,65.7,62.0,96,84,67,29.69,29.49,4,0,0,0.01
2013-6-30,85.4,72.6,63.3,70.0,66.0,62.0,95,81,55,29.92,29.69,4,0,0,0.00
2013-7-1,74.6,68.9,65.6,69.0,66.4,64.0,96,91,83,30.05,29.92,4,0,0,0.01
2013-7-2,79.5,68.9,63.2,75.0,67.1,62.0,96,94,80,30.13,30.04,3,0,0,0.93
2013-7-3,84.9,77.1,69.5,73.0,71.6,68.0,97,84,66,30.19,30.12,2,0,0,0.06
2013-7-4,88.8,80.2,71.4,75.0,72.4,70.0,95,78,60,30.21,30.07,5,1,0,0.01
2013-7-5,90.3,79.8,72.3,77.0,72.9,71.0,95,80,58,30.16,30.01,5,0,0,0.01
2013-7-6,83.8,75.9,69.9,72.0,68.1,63.0,95,78,51,30.12,30.03,3,0,0,0.00
2013-7-7,90.1,76.3,68.6,75.0,70.0,65.0,95,82,56,30.07,29.91,5,0,0,0.01
2013-7-8,82.1,75.0,70.2,71.0,69.1,66.0,96,83,61,30.04,29.94,2,0,0,0.00
2013-7-9,85.4,76.1,69.0,71.0,68.9,67.0,94,79,58,30.09,29.97,4,0,0,0.00
2013-7-10,81.6,75.1,71.6,74.0,71.3,67.0,95,88,73,29.99,29.77,4,1,0,0.53
2013-7-11,81.7,73.7,66.6,73.0,65.0,58.0,95,76,45,30.00,29.76,4,0,0,0.00
2013-7-12,80.7,71.2,62.8,65.0,61.8,59.0,88,73,57,30.19,30.00,5,0,0,0.00
2013-7-13,76.0,70.9,64.9,69.0,63.9,57.0,92,78,68,30.30,30.19,3,0,0,0.00
2013-7-14,88.9,77.7,68.1,74.0,70.3,66.0,96,80,50,30.33,30.22,2,0,0,0.00
2013-7-15,90.9,80.5,70.8,72.0,69.6,67.0,94,72,48,30.25,30.12,5,0,0,0.00
2013-7-16,90.7,79.6,66.5,73.0,68.4,64.0,91,70,47,30.23,30.14,4,0,0,0.00
2013-7-17,92.9,81.3,69.6,74.0,70.7,67.0,94,72,46,30.21,30.01,3,0,0,0.00
2013-7-18,91.7,83.2,74.3,74.0,72.2,70.0,91,70,52,30.04,29.92,5,0,0,0.00
2013-7-19,94.2,83.0,70.0,74.0,70.8,65.0,92,69,46,29.94,29.70,5,1,0,0.12
2013-7-20,83.0,73.9,68.1,71.0,66.6,62.0,95,79,59,29.85,29.70,4,0,0,0.00
2013-7-21,80.9,71.4,62.2,66.0,61.6,58.0,93,73,50,30.00,29.85,2,0,0,0.00
2013-7-22,83.2,70.5,60.2,72.0,63.3,56.0,93,78,58,30.03,29.82,3,0,0,0.22
2013-7-23,77.2,71.4,67.6,71.0,68.4,66.0,96,90,78,29.83,29.57,1,0,0,0.79
2013-7-24,74.4,68.8,58.6,67.0,58.4,49.0,95,71,49,30.04,29.61,5,1,0,0.00
2013-7-25,71.0,61.4,50.3,56.0,50.6,47.0,90,69,49,30.13,30.04,5,1,0,0.00
2013-7-26,76.7,65.6,57.5,59.0,56.1,53.0,87,73,52,30.10,30.01,5,0,0,0.00
2013-7-27,82.7,69.7,54.9,63.0,59.1,53.0,95,71,42,30.07,29.94,5,0,0,0.00
2013-7-28,73.0,68.5,65.9,68.0,64.3,61.0,94,86,74,29.98,29.92,3,0,0,0.16
2013-7-29,78.3,69.8,62.5,66.0,59.9,53.0,95,74,43,30.12,29.95,3,0,0,0.00
2013-7-30,77.9,66.6,55.9,60.0,56.8,53.0,93,72,48,30.17,30.08,2,0,0,0.00
2013-7-31,80.8,68.7,54.9,61.0,57.3,53.0,94,69,43,30.18,30.02,6,0,0,0.00
2013-8-1,75.6,66.5,60.7,67.0,62.0,57.0,93,85,71,30.03,29.84,7,1,0,0.09
2013-8-2,79.2,69.1,61.0,63.0,59.7,56.0,96,74,46,29.88,29.81,3,0,0,0.00
2013-8-3,78.2,67.8,58.7,62.0,56.1,51.0,95,69,40,29.89,29.81,4,1,0,0.07
2013-8-4,76.0,65.7,55.6,59.0,53.6,48.0,89,67,45,29.98,29.84,2,0,0,0.00
2013-8-5,75.4,62.7,51.1,52.0,48.5,42.0,87,64,32,30.07,29.97,3,0,0,0.00
2013-8-6,78.6,64.9,48.9,55.0,51.3,47.0,94,65,38,30.14,30.07,5,0,0,0.00
2013-8-7,75.9,69.8,61.5,63.0,59.9,56.0,85,71,62,30.14,30.02,9,1,0,0.00
2013-8-8,84.9,74.9,69.3,70.0,67.4,63.0,88,78,60,30.02,29.95,5,1,0,0.02
2013-8-9,75.3,72.8,69.9,73.0,70.5,67.0,95,92,84,29.96,29.78,5,0,0,0.30
2013-8-10,76.5,69.0,59.4,66.0,56.0,47.0,94,66,38,30.07,29.86,4,1,0,0.00
2013-8-11,76.8,64.5,50.9,56.0,52.3,49.0,93,67,42,30.13,30.02,4,0,0,0.00
2013-8-12,80.2,68.8,55.9,62.0,56.8,53.0,92,68,42,30.05,29.91,4,0,0,0.00
2013-8-13,69.5,65.6,60.0,66.0,62.8,58.0,95,90,80,29.91,29.68,2,0,0,1.58
2013-8-14,68.9,60.0,52.6,57.0,52.8,50.0,94,78,54,30.02,29.78,4,1,0,0.00
2013-8-15,71.6,61.2,49.7,56.0,52.1,48.0,95,74,47,30.14,30.02,6,0,0,0.00
2013-8-16,76.7,64.1,52.4,58.0,53.2,49.0,94,71,40,30.22,30.13,3,0,0,0.00
2013-8-17,80.5,66.2,52.2,62.0,55.8,50.0,94,72,41,30.31,30.23,4,0,0,0.00
2013-8-18,74.2,65.3,57.4,64.0,60.0,56.0,94,83,66,30.29,30.11,2,0,0,0.00
2013-8-19,81.1,69.3,59.0,64.0,60.0,57.0,95,74,48,30.11,29.99,4,0,0,0.00
2013-8-20,82.8,70.2,57.9,65.0,60.0,56.0,94,72,48,30.13,30.04,4,0,0,0.00
2013-8-21,85.4,72.7,60.6,66.0,62.2,58.0,93,72,42,30.18,30.03,3,0,0,0.00
2013-8-22,86.9,74.4,64.5,70.0,65.0,62.0,94,75,45,30.04,29.83,4,0,0,0.15
2013-8-23,76.8,67.7,59.2,66.0,57.7,50.0,96,73,42,30.18,29.90,4,0,0,0.00
2013-8-24,77.2,63.1,50.0,56.0,51.8,48.0,94,70,38,30.35,30.19,4,0,0,0.00
2013-8-25,80.7,66.0,50.7,61.0,56.1,49.0,94,73,46,30.40,30.16,5,0,0,0.01
2013-8-26,77.7,68.2,63.7,68.0,63.6,58.0,95,85,68,30.17,29.90,4,0,0,0.15
2013-8-27,80.0,71.6,66.3,71.0,67.7,65.0,97,88,68,29.93,29.86,1,0,0,0.04
2013-8-28,85.0,72.1,64.4,71.0,66.7,63.0,96,84,54,29.94,29.83,3,0,0,0.02
2013-8-29,78.9,70.9,63.2,67.0,64.7,62.0,96,81,62,30.06,29.94,3,0,0,0.01
2013-8-30,84.0,72.7,64.1,70.0,65.4,62.0,94,79,52,30.01,29.80,4,0,0,0.01
2013-8-31,76.7,70.9,67.5,73.0,69.0,66.0,96,93,84,29.83,29.75,2,0,0,0.01
2013-9-1,80.0,72.0,66.5,72.0,68.8,65.0,97,90,71,29.88,29.80,3,0,0,0.01
2013-9-2,79.2,72.5,65.2,72.0,69.1,64.0,95,89,76,29.82,29.67,3,0,0,0.78
2013-9-3,73.6,65.7,61.4,64.0,59.9,54.0,96,83,52,29.88,29.75,4,0,0,0.00
2013-9-4,76.8,66.4,59.0,59.0,56.3,51.0,92,72,44,29.97,29.87,3,0,0,0.00
2013-9-5,68.6,61.4,49.5,60.0,49.4,38.0,94,68,35,30.21,29.90,4,0,0,0.02
2013-9-6,68.8,54.9,41.1,48.0,42.9,37.0,94,68,35,30.30,30.13,4,0,0,0.00
2013-9-7,72.4,59.0,49.3,59.0,52.2,46.0,92,79,53,30.13,29.89,4,0,0,0.03
2013-9-8,69.9,61.6,49.5,60.0,50.1,39.0,93,70,33,30.14,29.82,3,0,0,0.00
2013-9-9,69.3,56.0,40.7,53.0,45.7,38.0,93,70,47,30.26,30.10,4,0,0,0.00
2013-9-10,74.6,66.7,59.6,70.0,63.0,53.0,95,88,77,30.11,30.00,6,1,0,0.40
2013-9-11,92.3,76.1,66.3,78.0,71.0,65.0,97,86,62,30.08,29.92,4,0,0,0.21
2013-9-12,82.0,70.7,66.7,73.0,68.2,65.0,97,92,69,29.93,29.67,3,0,0,0.54
2013-9-13,68.0,60.5,52.5,65.0,58.9,51.0,97,94,83,29.89,29.65,2,0,0,0.94
2013-9-14,60.7,54.3,48.3,51.0,48.4,44.0,95,81,67,30.13,29.89,1,0,0,0.00
2013-9-15,67.7,54.7,42.7,55.0,48.7,41.0,95,81,59,30.22,30.07,3,0,0,0.00
2013-9-16,62.4,54.1,43.9,55.0,49.0,39.0,94,83,68,30.34,30.05,4,0,0,0.03
2013-9-17,63.5,49.0,36.7,46.0,40.4,35.0,95,75,42,30.51,30.35,4,0,0,0.00
2013-9-18,70.9,53.6,39.8,53.0,46.2,38.0,95,79,48,30.37,30.16,3,0,0,0.00
2013-9-19,76.5,58.7,44.8,56.0,50.4,43.0,95,77,41,30.19,30.06,3,0,0,0.00
2013-9-20,79.7,62.4,46.9,60.0,53.6,45.0,95,75,42,30.11,29.95,4,0,0,0.00
2013-9-21,73.3,64.8,57.0,63.0,58.2,54.0,93,80,60,29.98,29.62,9,2,0,0.57
2013-9-22,61.8,56.1,47.8,60.0,49.3,41.0,95,79,57,29.94,29.62,3,1,0,0.15
2013-9-23,62.5,50.3,40.7,45.0,40.5,38.0,92,71,46,30.10,29.94,4,0,0,0.00
2013-9-24,67.1,50.8,38.7,47.0,41.6,36.0,93,73,48,30.10,29.89,4,0,0,0.00
2013-9-25,68.4,54.9,41.3,53.0,46.7,39.0,94,76,49,30.01,29.91,5,0,0,0.00
2013-9-26,66.3,55.4,47.1,49.0,47.6,45.0,94,76,53,30.17,30.01,4,0,0,0.00
2013-9-27,60.4,52.2,43.5,52.0,47.9,42.0,94,85,70,30.32,30.17,3,0,0,0.00
2013-9-28,72.0,55.4,46.7,56.0,50.2,45.0,96,84,54,30.39,30.25,4,0,0,0.00
2013-9-29,74.1,56.5,46.3,57.0,50.5,45.0,96,82,49,30.26,30.07,3,0,0,0.00
2013-9-30,72.5,57.2,47.4,55.0,50.3,46.0,95,80,45,30.12,29.98,3,0,0,0.00
2013-10-1,76.0,58.9,44.7,60.0,52.0,43.0,96,80,51,30.04,29.90,2,0,0,0.00
2013-10-2,75.7,63.2,53.6,62.0,56.1,52.0,95,79,59,30.03,29.91,2,0,0,0.00
2013-10-3,72.0,59.7,47.0,54.0,50.9,45.0,95,75,43,30.14,30.03,2,0,0,0.00
2013-10-4,58.5,56.4,54.1,57.0,54.6,52.0,96,93,87,30.10,30.05,2,0,0,0.63
2013-10-5,59.9,57.4,55.1,55.0,52.4,48.0,90,83,74,30.14,30.08,3,0,0,0.02
2013-10-6,58.7,55.1,51.0,58.0,53.2,47.0,96,93,72,30.13,30.04,2,0,0,1.43
2013-10-7,74.0,61.1,50.8,66.0,58.5,49.0,97,91,72,30.03,29.62,11,1,0,0.49
2013-10-8,65.8,52.6,43.7,49.0,43.0,37.0,94,74,36,30.39,29.97,2,0,0,0.00
2013-10-9,64.6,48.7,38.3,47.0,41.4,37.0,95,79,39,30.50,30.37,2,0,0,0.00
2013-10-10,58.6,49.9,39.8,51.0,44.8,38.0,95,83,62,30.37,30.20,2,0,0,0.00
2013-10-11,66.9,55.3,47.5,54.0,48.3,45.0,95,79,54,30.20,30.11,2,0,0,0.00
2013-10-12,73.1,55.4,43.4,53.0,47.4,41.0,93,77,48,30.37,30.17,9,1,0,0.00
2013-10-13,69.0,57.0,48.9,52.0,48.7,46.0,93,76,46,30.43,30.32,4,0,0,0.00
2013-10-14,65.1,56.2,48.3,55.0,50.1,46.0,91,81,65,30.37,30.25,4,0,0,0.00
2013-10-15,66.4,58.7,53.2,58.0,54.8,51.0,94,87,71,30.27,30.11,4,0,0,0.00
2013-10-16,63.5,56.6,49.8,55.0,50.3,43.0,94,79,70,30.12,29.86,5,1,0,0.00
2013-10-17,69.3,60.4,53.8,56.0,50.8,46.0,91,72,45,29.89,29.63,4,1,0,0.13
2013-10-18,63.1,54.0,44.9,52.0,44.8,34.0,95,73,37,29.95,29.61,7,1,0,0.11
2013-10-19,63.9,51.6,39.2,47.0,41.4,37.0,93,71,41,29.96,29.70,7,1,0,0.02
2013-10-20,58.8,49.7,41.3,47.0,38.1,32.0,87,66,39,30.04,29.69,11,1,0,0.01
2013-10-21,66.1,53.2,41.2,42.0,39.3,37.0,88,62,38,30.11,29.91,6,1,0,0.00
2013-10-22,54.6,49.4,36.3,48.0,40.3,32.0,91,72,54,29.91,29.77,7,1,0,0.02
2013-10-23,52.0,42.9,35.2,36.0,33.1,30.0,88,70,44,29.83,29.63,3,0,0,0.00
2013-10-24,47.3,40.9,32.5,36.0,31.6,27.0,96,71,46,29.94,29.73,6,2,0,0.00
2013-10-25,48.2,40.6,36.0,34.0,31.0,26.0,85,70,47,30.18,29.94,6,2,0,0.00
2013-10-26,50.4,42.6,34.5,34.0,31.6,28.0,90,67,42,30.16,29.84,6,1,0,0.00
2013-10-27,49.7,44.0,35.4,36.0,33.4,30.0,87,67,51,30.09,29.80,7,2,0,0.00
2013-10-28,54.5,41.1,30.5,38.0,29.7,24.0,92,68,36,30.39,30.08,6,1,0,0.00
2013-10-29,45.4,34.5,25.2,28.0,23.6,21.0,86,66,41,30.49,30.36,4,0,0,0.00
2013-10-30,50.7,38.2,33.3,39.0,32.3,26.0,91,80,64,30.36,30.21,2,0,0,0.02
2013-10-31,59.1,46.0,32.6,58.0,44.5,31.0,96,94,91,30.25,29.66,8,1,0,0.15
2013-11-1,68.9,61.0,48.1,61.0,51.7,39.0,94,74,37,29.69,29.39,11,2,0,0.09
2013-11-2,55.8,47.0,38.7,47.0,41.0,36.0,94,80,64,29.86,29.63,8,1,0,0.00
2013-11-3,41.9,36.1,25.9,36.0,24.1,17.0,83,63,46,30.50,29.86,7,1,0,0.00
2013-11-4,39.6,30.6,22.8,21.0,17.4,14.0,81,60,37,30.71,30.50,6,0,0,0.00
2013-11-5,50.7,38.9,25.3,37.0,28.3,20.0,81,67,50,30.69,30.46,7,1,0,0.00
2013-11-6,58.7,50.8,43.7,46.0,41.8,37.0,83,72,59,30.47,29.95,7,2,0,0.00
2013-11-7,55.4,48.1,38.0,50.0,41.5,31.0,93,79,58,29.93,29.78,6,1,0,0.25
2013-11-8,43.6,37.7,33.1,34.0,29.6,22.0,87,73,47,30.17,29.89,8,2,0,0.00
2013-11-9,41.6,35.7,27.8,30.0,26.6,21.0,82,70,57,30.25,29.93,7,1,0,0.00
2013-11-10,47.2,42.2,38.7,41.0,34.0,28.0,90,73,60,30.00,29.78,9,2,0,0.08
2013-11-11,45.7,41.8,35.7,35.0,29.0,26.0,76,61,51,30.16,29.92,7,2,0,0.00
2013-11-12,41.4,30.7,23.4,36.0,19.1,14.0,85,63,49,30.29,29.94,7,2,0,0.01
2013-11-13,35.7,28.1,20.3,19.0,13.6,6.0,70,56,30,30.38,30.15,6,1,0,0.00
2013-11-14,48.6,35.9,25.3,24.0,20.7,18.0,78,56,35,30.16,30.08,8,1,0,0.00
2013-11-15,54.6,39.9,26.4,23.0,19.7,15.0,75,48,21,30.20,30.11,4,0,0,0.00
2013-11-16,57.2,45.6,36.9,35.0,29.9,23.0,81,56,40,30.32,30.19,4,0,0,0.00
2013-11-17,59.8,48.7,37.1,56.0,45.6,32.0,95,89,80,30.25,29.69,11,1,0,0.09
2013-11-18,61.3,53.4,40.1,57.0,41.7,29.0,90,66,48,29.75,29.45,12,3,0,0.19
2013-11-19,40.1,34.0,24.8,30.0,20.5,18.0,83,58,46,30.41,29.76,6,2,0,0.00
2013-11-20,35.6,27.1,19.5,18.0,16.4,14.0,81,65,45,30.66,30.41,3,0,0,0.00
2013-11-21,42.9,31.1,17.4,29.0,21.5,14.0,89,69,42,30.66,30.38,4,0,0,0.00
2013-11-22,45.1,38.8,34.6,42.0,36.2,28.0,95,90,72,30.38,29.89,4,0,0,0.08
2013-11-23,44.2,33.8,23.5,38.0,23.0,12.0,82,66,43,30.04,29.84,11,4,0,0.00
2013-11-24,24.8,20.2,14.6,15.0,2.6,-3.0,76,48,31,30.33,29.93,8,3,0,0.00
2013-11-25,30.9,22.4,9.8,15.0,8.9,-1.0,73,57,47,30.45,30.23,7,1,0,0.00
2013-11-26,33.1,30.2,26.2,30.0,25.9,14.0,93,84,50,30.31,29.96,6,1,0,0.19
2013-11-27,37.1,34.1,31.3,36.0,32.6,28.0,95,94,87,29.95,29.40,8,2,0,0.89
2013-11-28,31.0,24.4,18.5,27.0,13.3,6.0,86,64,41,30.46,29.64,10,3,0,0.00
2013-11-29,29.0,22.6,16.4,16.0,13.8,10.0,86,70,52,30.78,30.47,3,0,0,0.00
2013-11-30,29.8,21.3,8.7,19.0,11.1,5.0,87,67,47,30.81,30.38,7,1,0,0.00
2013-12-1,37.1,31.6,26.3,29.0,25.8,20.0,88,79,66,30.37,30.04,2,0,0,0.01
2013-12-2,36.8,33.3,29.0,32.0,30.1,27.0,92,88,81,30.04,29.92,0,0,0,0.00
2013-12-3,42.8,33.3,27.4,35.0,29.4,25.0,94,86,68,30.02,29.92,5,1,0,0.00
2013-12-4,38.1,30.2,23.5,30.0,25.6,22.0,93,83,65,30.17,30.03,2,0,0,0.00
2013-12-5,52.8,42.5,28.6,51.0,39.5,26.0,94,89,83,30.16,29.88,12,2,0,0.01
2013-12-6,50.0,38.9,31.4,47.0,34.7,25.0,93,85,66,30.20,29.90,4,1,0,0.31
2013-12-7,35.4,31.5,28.1,29.0,24.2,19.0,92,76,54,30.50,30.16,6,2,0,0.02
2013-12-8,29.1,27.5,23.9,22.0,19.6,18.0,85,72,64,30.61,30.45,5,1,0,0.00
2013-12-9,34.5,29.8,25.1,32.0,26.8,17.0,94,89,64,30.45,29.91,4,0,0,0.02
2013-12-10,34.6,29.0,19.6,28.0,21.0,15.0,90,73,57,30.02,29.85,5,2,0,0.00
2013-12-11,29.3,24.8,19.6,21.0,14.7,8.0,85,66,43,30.21,30.03,11,3,0,0.00
2013-12-12,22.2,18.0,13.1,13.0,5.3,1.0,73,58,46,30.35,30.05,9,2,0,0.00
2013-12-13,26.8,20.1,11.1,19.0,9.2,1.0,78,63,48,30.45,29.98,6,2,0,0.00
2013-12-14,13.7,9.1,5.7,11.0,2.2,-2.0,88,74,62,30.63,30.10,5,1,0,0.00
2013-12-15,27.9,22.7,14.1,24.0,19.1,11.0,91,86,74,30.06,29.58,6,1,0,0.00
2013-12-16,23.6,18.1,4.7,20.0,8.7,0.0,87,68,53,30.25,29.76,8,2,0,0.00
2013-12-17,11.5,5.4,-1.4,8.0,1.7,-6.0,87,84,82,30.27,30.04,2,0,0,0.00
2013-12-18,27.9,19.5,11.5,22.0,15.5,8.0,89,84,77,30.09,29.99,2,0,0,0.00
2013-12-19,37.1,31.0,24.8,26.0,22.9,20.0,82,73,59,30.11,29.97,6,1,0,0.11
2013-12-20,41.7,35.4,31.6,36.0,30.4,25.0,94,82,62,30.09,29.91,6,0,0,0.47
2013-12-21,43.7,38.4,32.5,40.0,36.6,31.0,95,93,87,29.91,29.84,4,0,0,0.42
2013-12-22,34.2,30.7,28.0,33.0,29.4,26.0,96,94,93,29.96,29.70,5,1,0,0.05
2013-12-23,39.5,35.2,33.1,39.0,32.9,23.0,97,92,66,30.20,29.96,4,0,0,0.15
2013-12-24,32.7,25.8,16.9,23.0,15.9,5.0,86,67,54,30.35,30.13,7,1,0,0.00
2013-12-25,17.2,13.3,6.2,8.0,2.6,-1.0,76,63,53,30.57,30.35,4,1,0,0.00
2013-12-26,29.7,24.6,14.6,24.0,18.1,6.0,92,77,64,30.42,30.12,8,1,0,0.00
2013-12-27,32.4,28.4,23.9,25.0,20.3,16.0,81,72,63,30.31,30.22,7,1,0,0.00
2013-12-28,38.9,31.2,25.7,30.0,25.3,21.0,91,79,66,30.21,30.05,5,0,0,0.00
2013-12-29,35.6,30.3,26.2,31.0,28.1,24.0,94,91,80,30.04,29.61,1,0,0,0.33
2013-12-30,33.9,23.8,10.6,33.0,16.5,5.0,95,74,54,30.23,29.66,9,2,0,0.03
2013-12-31,20.7,13.8,6.9,16.0,7.5,2.0,88,76,58,30.23,30.04,4,0,0,0.00
2014-1-1,22.6,15.2,8.5,15.0,8.8,3.0,86,76,61,30.41,30.22,4,0,0,0.00
2014-1-2,9.6,0.8,-4.1,5.0,-3.5,-8.0,83,82,81,30.39,29.97,4,1,0,0.00